sensor_id;sensor_type;location;lat;lon;timestamp;P1;durP1;ratioP1;P2;durP2;ratioP2
76463;SDS011;65301;46.666;20.110;2022-11-20T00:01:13;28.33;;;13.55;;
76463;SDS011;65301;46.666;20.110;2022-11-20T00:04:16;26.67;;;12.75;;
76463;SDS011;65301;46.666;20.110;2022-11-20T00:07:18;27.52;;;13.43;;
76463;SDS011;65301;46.666;20.110;2022-11-20T00:10:20;26.67;;;12.80;;
76463;SDS011;65301;46.666;20.110;2022-11-20T00:13:21;31.73;;;14.13;;
76463;SDS011;65301;46.666;20.110;2022-11-20T00:16:23;26.05;;;13.55;;
76463;SDS011;65301;46.666;20.110;2022-11-20T00:19:27;27.50;;;13.15;;
76463;SDS011;65301;46.666;20.110;2022-11-20T00:22:28;27.65;;;13.63;;
76463;SDS011;65301;46.666;20.110;2022-11-20T00:25:30;26.27;;;12.63;;
76463;SDS011;65301;46.666;20.110;2022-11-20T00:28:32;32.70;;;14.40;;
76463;SDS011;65301;46.666;20.110;2022-11-20T00:31:34;29.55;;;14.00;;
76463;SDS011;65301;46.666;20.110;2022-11-20T00:34:36;29.20;;;13.60;;
76463;SDS011;65301;46.666;20.110;2022-11-20T00:37:37;28.35;;;13.50;;
76463;SDS011;65301;46.666;20.110;2022-11-20T00:40:39;29.17;;;13.97;;
76463;SDS011;65301;46.666;20.110;2022-11-20T00:43:41;27.27;;;12.70;;
76463;SDS011;65301;46.666;20.110;2022-11-20T00:46:43;29.92;;;14.43;;
76463;SDS011;65301;46.666;20.110;2022-11-20T00:49:45;33.38;;;15.50;;
76463;SDS011;65301;46.666;20.110;2022-11-20T00:52:46;33.25;;;13.98;;
76463;SDS011;65301;46.666;20.110;2022-11-20T00:59:08;32.80;;;14.50;;
76463;SDS011;65301;46.666;20.110;2022-11-20T01:02:10;30.63;;;13.20;;
76463;SDS011;65301;46.666;20.110;2022-11-20T01:05:12;31.35;;;14.88;;
76463;SDS011;65301;46.666;20.110;2022-11-20T01:08:14;30.42;;;13.63;;
76463;SDS011;65301;46.666;20.110;2022-11-20T01:11:17;30.77;;;13.80;;
76463;SDS011;65301;46.666;20.110;2022-11-20T01:14:20;32.53;;;14.83;;
76463;SDS011;65301;46.666;20.110;2022-11-20T01:17:22;31.67;;;14.32;;
76463;SDS011;65301;46.666;20.110;2022-11-20T01:20:24;33.90;;;14.90;;
76463;SDS011;65301;46.666;20.110;2022-11-20T01:23:25;28.60;;;12.88;;
76463;SDS011;65301;46.666;20.110;2022-11-20T01:26:28;33.73;;;14.23;;
76463;SDS011;65301;46.666;20.110;2022-11-20T01:29:32;31.97;;;15.20;;
76463;SDS011;65301;46.666;20.110;2022-11-20T01:32:34;30.55;;;13.73;;
76463;SDS011;65301;46.666;20.110;2022-11-20T01:35:36;32.72;;;14.75;;
76463;SDS011;65301;46.666;20.110;2022-11-20T01:38:37;28.65;;;14.02;;
76463;SDS011;65301;46.666;20.110;2022-11-20T01:41:39;28.30;;;13.83;;
76463;SDS011;65301;46.666;20.110;2022-11-20T01:45:00;34.17;;;14.37;;
76463;SDS011;65301;46.666;20.110;2022-11-20T01:48:02;31.73;;;15.00;;
76463;SDS011;65301;46.666;20.110;2022-11-20T01:51:05;33.50;;;15.75;;
76463;SDS011;65301;46.666;20.110;2022-11-20T01:54:13;33.00;;;14.82;;
76463;SDS011;65301;46.666;20.110;2022-11-20T01:57:20;28.07;;;13.77;;
76463;SDS011;65301;46.666;20.110;2022-11-20T02:00:25;34.60;;;16.23;;
76463;SDS011;65301;46.666;20.110;2022-11-20T02:03:27;36.65;;;15.98;;
76463;SDS011;65301;46.666;20.110;2022-11-20T02:06:30;31.38;;;14.68;;
76463;SDS011;65301;46.666;20.110;2022-11-20T02:09:36;34.35;;;14.63;;
76463;SDS011;65301;46.666;20.110;2022-11-20T02:12:38;30.77;;;14.47;;
76463;SDS011;65301;46.666;20.110;2022-11-20T02:15:58;31.80;;;14.93;;
76463;SDS011;65301;46.666;20.110;2022-11-20T02:19:01;29.83;;;15.15;;
76463;SDS011;65301;46.666;20.110;2022-11-20T02:22:05;29.52;;;14.05;;
76463;SDS011;65301;46.666;20.110;2022-11-20T02:25:13;25.75;;;13.52;;
76463;SDS011;65301;46.666;20.110;2022-11-20T02:28:16;30.07;;;13.97;;
76463;SDS011;65301;46.666;20.110;2022-11-20T02:31:19;33.90;;;15.73;;
76463;SDS011;65301;46.666;20.110;2022-11-20T02:34:21;33.83;;;14.82;;
76463;SDS011;65301;46.666;20.110;2022-11-20T02:37:23;28.58;;;13.35;;
76463;SDS011;65301;46.666;20.110;2022-11-20T02:40:32;29.65;;;14.02;;
76463;SDS011;65301;46.666;20.110;2022-11-20T02:43:33;30.73;;;13.63;;
76463;SDS011;65301;46.666;20.110;2022-11-20T02:46:35;30.43;;;13.57;;
76463;SDS011;65301;46.666;20.110;2022-11-20T02:49:37;28.35;;;14.50;;
76463;SDS011;65301;46.666;20.110;2022-11-20T02:52:38;30.45;;;13.10;;
76463;SDS011;65301;46.666;20.110;2022-11-20T02:55:40;29.52;;;13.98;;
76463;SDS011;65301;46.666;20.110;2022-11-20T02:58:42;28.97;;;13.60;;
76463;SDS011;65301;46.666;20.110;2022-11-20T03:01:44;30.60;;;13.33;;
76463;SDS011;65301;46.666;20.110;2022-11-20T03:04:45;28.50;;;12.63;;
76463;SDS011;65301;46.666;20.110;2022-11-20T03:07:47;29.02;;;13.32;;
76463;SDS011;65301;46.666;20.110;2022-11-20T03:10:49;27.75;;;12.77;;
76463;SDS011;65301;46.666;20.110;2022-11-20T03:13:50;27.27;;;13.10;;
76463;SDS011;65301;46.666;20.110;2022-11-20T03:16:52;26.50;;;12.60;;
76463;SDS011;65301;46.666;20.110;2022-11-20T03:19:54;30.65;;;12.95;;
76463;SDS011;65301;46.666;20.110;2022-11-20T03:22:55;28.45;;;12.50;;
76463;SDS011;65301;46.666;20.110;2022-11-20T03:26:17;27.48;;;12.55;;
76463;SDS011;65301;46.666;20.110;2022-11-20T03:29:20;25.60;;;12.47;;
76463;SDS011;65301;46.666;20.110;2022-11-20T03:32:22;28.33;;;12.83;;
76463;SDS011;65301;46.666;20.110;2022-11-20T03:35:23;26.63;;;12.70;;
76463;SDS011;65301;46.666;20.110;2022-11-20T03:38:28;28.75;;;12.50;;
76463;SDS011;65301;46.666;20.110;2022-11-20T03:41:31;28.90;;;13.18;;
76463;SDS011;65301;46.666;20.110;2022-11-20T03:44:37;27.37;;;12.30;;
76463;SDS011;65301;46.666;20.110;2022-11-20T03:47:38;25.53;;;11.33;;
76463;SDS011;65301;46.666;20.110;2022-11-20T03:50:40;26.73;;;12.20;;
76463;SDS011;65301;46.666;20.110;2022-11-20T03:53:42;28.80;;;13.50;;
76463;SDS011;65301;46.666;20.110;2022-11-20T03:56:45;30.25;;;13.40;;
76463;SDS011;65301;46.666;20.110;2022-11-20T03:59:47;27.10;;;12.30;;
76463;SDS011;65301;46.666;20.110;2022-11-20T04:02:49;26.43;;;13.73;;
76463;SDS011;65301;46.666;20.110;2022-11-20T04:05:50;24.35;;;13.00;;
76463;SDS011;65301;46.666;20.110;2022-11-20T04:08:57;24.45;;;12.00;;
76463;SDS011;65301;46.666;20.110;2022-11-20T04:11:59;28.45;;;13.00;;
76463;SDS011;65301;46.666;20.110;2022-11-20T04:15:01;27.77;;;13.33;;
76463;SDS011;65301;46.666;20.110;2022-11-20T04:18:03;26.30;;;12.30;;
76463;SDS011;65301;46.666;20.110;2022-11-20T04:21:05;27.77;;;11.98;;
76463;SDS011;65301;46.666;20.110;2022-11-20T04:24:07;24.52;;;11.70;;
76463;SDS011;65301;46.666;20.110;2022-11-20T04:27:09;26.50;;;13.02;;
76463;SDS011;65301;46.666;20.110;2022-11-20T04:30:11;24.60;;;11.00;;
76463;SDS011;65301;46.666;20.110;2022-11-20T04:33:13;29.13;;;13.30;;
76463;SDS011;65301;46.666;20.110;2022-11-20T04:36:16;25.08;;;10.80;;
76463;SDS011;65301;46.666;20.110;2022-11-20T04:39:19;21.50;;;11.48;;
76463;SDS011;65301;46.666;20.110;2022-11-20T04:42:21;26.23;;;11.30;;
76463;SDS011;65301;46.666;20.110;2022-11-20T04:45:31;26.20;;;12.73;;
76463;SDS011;65301;46.666;20.110;2022-11-20T04:48:34;25.53;;;12.43;;
76463;SDS011;65301;46.666;20.110;2022-11-20T04:51:36;24.15;;;11.90;;
76463;SDS011;65301;46.666;20.110;2022-11-20T04:54:37;27.85;;;11.95;;
76463;SDS011;65301;46.666;20.110;2022-11-20T04:57:39;30.15;;;11.90;;
76463;SDS011;65301;46.666;20.110;2022-11-20T05:00:41;24.87;;;12.30;;
76463;SDS011;65301;46.666;20.110;2022-11-20T05:03:43;24.67;;;11.70;;
76463;SDS011;65301;46.666;20.110;2022-11-20T05:06:45;27.92;;;11.73;;
76463;SDS011;65301;46.666;20.110;2022-11-20T05:09:47;22.15;;;12.05;;
76463;SDS011;65301;46.666;20.110;2022-11-20T05:12:48;23.65;;;11.25;;
76463;SDS011;65301;46.666;20.110;2022-11-20T05:15:50;28.07;;;12.37;;
76463;SDS011;65301;46.666;20.110;2022-11-20T05:18:52;26.53;;;11.97;;
76463;SDS011;65301;46.666;20.110;2022-11-20T05:21:55;25.50;;;12.30;;
76463;SDS011;65301;46.666;20.110;2022-11-20T05:24:57;24.67;;;11.35;;
76463;SDS011;65301;46.666;20.110;2022-11-20T05:27:59;25.38;;;11.50;;
76463;SDS011;65301;46.666;20.110;2022-11-20T05:31:05;21.77;;;9.40;;
76463;SDS011;65301;46.666;20.110;2022-11-20T05:34:10;25.63;;;12.53;;
76463;SDS011;65301;46.666;20.110;2022-11-20T05:37:12;24.33;;;11.55;;
76463;SDS011;65301;46.666;20.110;2022-11-20T05:40:14;22.90;;;11.02;;
76463;SDS011;65301;46.666;20.110;2022-11-20T05:43:15;26.92;;;11.65;;
76463;SDS011;65301;46.666;20.110;2022-11-20T05:46:18;21.60;;;10.80;;
76463;SDS011;65301;46.666;20.110;2022-11-20T05:49:29;27.57;;;12.53;;
76463;SDS011;65301;46.666;20.110;2022-11-20T05:52:30;26.08;;;11.77;;
76463;SDS011;65301;46.666;20.110;2022-11-20T05:55:33;25.63;;;11.60;;
76463;SDS011;65301;46.666;20.110;2022-11-20T05:58:35;26.40;;;10.82;;
76463;SDS011;65301;46.666;20.110;2022-11-20T06:01:37;27.37;;;11.60;;
76463;SDS011;65301;46.666;20.110;2022-11-20T06:04:39;25.73;;;11.33;;
76463;SDS011;65301;46.666;20.110;2022-11-20T06:07:40;28.00;;;12.52;;
76463;SDS011;65301;46.666;20.110;2022-11-20T06:10:42;28.38;;;13.18;;
76463;SDS011;65301;46.666;20.110;2022-11-20T06:13:44;24.50;;;10.65;;
76463;SDS011;65301;46.666;20.110;2022-11-20T06:16:47;28.67;;;12.83;;
76463;SDS011;65301;46.666;20.110;2022-11-20T06:19:49;29.87;;;12.67;;
76463;SDS011;65301;46.666;20.110;2022-11-20T06:22:50;22.58;;;11.35;;
76463;SDS011;65301;46.666;20.110;2022-11-20T06:25:52;21.10;;;10.93;;
76463;SDS011;65301;46.666;20.110;2022-11-20T06:28:53;29.55;;;13.00;;
76463;SDS011;65301;46.666;20.110;2022-11-20T06:31:57;25.17;;;11.87;;
76463;SDS011;65301;46.666;20.110;2022-11-20T06:34:59;29.77;;;13.67;;
76463;SDS011;65301;46.666;20.110;2022-11-20T06:38:00;26.90;;;12.35;;
76463;SDS011;65301;46.666;20.110;2022-11-20T06:41:02;28.83;;;13.07;;
76463;SDS011;65301;46.666;20.110;2022-11-20T06:44:05;23.55;;;11.52;;
76463;SDS011;65301;46.666;20.110;2022-11-20T06:47:07;28.80;;;12.70;;
76463;SDS011;65301;46.666;20.110;2022-11-20T06:50:08;23.10;;;10.77;;
76463;SDS011;65301;46.666;20.110;2022-11-20T06:53:10;22.20;;;10.82;;
76463;SDS011;65301;46.666;20.110;2022-11-20T06:56:12;26.38;;;12.40;;
76463;SDS011;65301;46.666;20.110;2022-11-20T06:59:14;29.25;;;12.45;;
76463;SDS011;65301;46.666;20.110;2022-11-20T07:02:15;26.83;;;13.13;;
76463;SDS011;65301;46.666;20.110;2022-11-20T07:05:17;26.23;;;12.03;;
76463;SDS011;65301;46.666;20.110;2022-11-20T07:08:19;24.60;;;11.90;;
76463;SDS011;65301;46.666;20.110;2022-11-20T07:11:21;22.92;;;11.05;;
76463;SDS011;65301;46.666;20.110;2022-11-20T07:14:22;24.35;;;11.70;;
76463;SDS011;65301;46.666;20.110;2022-11-20T07:17:24;26.27;;;12.13;;
76463;SDS011;65301;46.666;20.110;2022-11-20T07:20:25;23.30;;;11.20;;
76463;SDS011;65301;46.666;20.110;2022-11-20T07:23:28;24.02;;;11.07;;
76463;SDS011;65301;46.666;20.110;2022-11-20T07:26:29;31.67;;;13.20;;
76463;SDS011;65301;46.666;20.110;2022-11-20T07:29:31;29.55;;;13.65;;
76463;SDS011;65301;46.666;20.110;2022-11-20T07:32:32;27.67;;;12.80;;
76463;SDS011;65301;46.666;20.110;2022-11-20T07:35:34;31.07;;;13.67;;
76463;SDS011;65301;46.666;20.110;2022-11-20T07:38:37;29.40;;;14.10;;
76463;SDS011;65301;46.666;20.110;2022-11-20T07:41:39;30.17;;;13.68;;
76463;SDS011;65301;46.666;20.110;2022-11-20T07:44:41;33.25;;;14.88;;
76463;SDS011;65301;46.666;20.110;2022-11-20T07:47:42;30.10;;;13.53;;
76463;SDS011;65301;46.666;20.110;2022-11-20T07:50:45;27.63;;;11.60;;
76463;SDS011;65301;46.666;20.110;2022-11-20T07:53:46;25.15;;;11.20;;
76463;SDS011;65301;46.666;20.110;2022-11-20T07:56:48;28.55;;;12.93;;
76463;SDS011;65301;46.666;20.110;2022-11-20T07:59:50;25.85;;;12.10;;
76463;SDS011;65301;46.666;20.110;2022-11-20T08:02:52;27.33;;;13.10;;
76463;SDS011;65301;46.666;20.110;2022-11-20T08:05:54;26.03;;;12.37;;
76463;SDS011;65301;46.666;20.110;2022-11-20T08:08:55;21.83;;;11.00;;
76463;SDS011;65301;46.666;20.110;2022-11-20T08:11:57;24.23;;;10.77;;
76463;SDS011;65301;46.666;20.110;2022-11-20T08:15:17;26.20;;;12.10;;
76463;SDS011;65301;46.666;20.110;2022-11-20T08:18:19;25.30;;;12.10;;
76463;SDS011;65301;46.666;20.110;2022-11-20T08:21:32;26.13;;;11.60;;
76463;SDS011;65301;46.666;20.110;2022-11-20T08:24:38;21.50;;;11.18;;
76463;SDS011;65301;46.666;20.110;2022-11-20T08:27:40;25.50;;;11.38;;
76463;SDS011;65301;46.666;20.110;2022-11-20T08:30:42;25.10;;;11.25;;
76463;SDS011;65301;46.666;20.110;2022-11-20T08:33:43;23.67;;;11.77;;
76463;SDS011;65301;46.666;20.110;2022-11-20T08:36:45;23.73;;;11.37;;
76463;SDS011;65301;46.666;20.110;2022-11-20T08:39:47;24.63;;;10.93;;
76463;SDS011;65301;46.666;20.110;2022-11-20T08:42:49;19.30;;;9.63;;
76463;SDS011;65301;46.666;20.110;2022-11-20T08:45:51;25.08;;;12.32;;
76463;SDS011;65301;46.666;20.110;2022-11-20T08:48:53;24.93;;;12.20;;
76463;SDS011;65301;46.666;20.110;2022-11-20T08:51:55;20.20;;;10.37;;
76463;SDS011;65301;46.666;20.110;2022-11-20T08:54:56;25.15;;;11.90;;
76463;SDS011;65301;46.666;20.110;2022-11-20T08:57:58;19.88;;;9.90;;
76463;SDS011;65301;46.666;20.110;2022-11-20T09:01:04;20.20;;;10.70;;
76463;SDS011;65301;46.666;20.110;2022-11-20T09:04:07;21.10;;;10.60;;
76463;SDS011;65301;46.666;20.110;2022-11-20T09:07:08;22.20;;;10.97;;
76463;SDS011;65301;46.666;20.110;2022-11-20T09:10:10;19.75;;;10.27;;
76463;SDS011;65301;46.666;20.110;2022-11-20T09:13:28;22.15;;;11.07;;
76463;SDS011;65301;46.666;20.110;2022-11-20T09:16:30;23.25;;;11.18;;
76463;SDS011;65301;46.666;20.110;2022-11-20T09:19:31;20.63;;;10.20;;
76463;SDS011;65301;46.666;20.110;2022-11-20T09:22:53;19.63;;;10.10;;
76463;SDS011;65301;46.666;20.110;2022-11-20T09:25:55;20.73;;;10.52;;
76463;SDS011;65301;46.666;20.110;2022-11-20T09:29:01;22.50;;;10.50;;
76463;SDS011;65301;46.666;20.110;2022-11-20T09:32:03;22.98;;;11.02;;
76463;SDS011;65301;46.666;20.110;2022-11-20T09:35:05;23.63;;;10.70;;
76463;SDS011;65301;46.666;20.110;2022-11-20T09:38:07;26.90;;;11.07;;
76463;SDS011;65301;46.666;20.110;2022-11-20T09:41:10;20.35;;;10.55;;
76463;SDS011;65301;46.666;20.110;2022-11-20T09:44:40;20.40;;;10.40;;
76463;SDS011;65301;46.666;20.110;2022-11-20T09:51:11;20.83;;;10.17;;
76463;SDS011;65301;46.666;20.110;2022-11-20T09:54:30;19.80;;;9.60;;
76463;SDS011;65301;46.666;20.110;2022-11-20T09:57:36;18.75;;;9.93;;
76463;SDS011;65301;46.666;20.110;2022-11-20T10:00:40;23.10;;;10.73;;
76463;SDS011;65301;46.666;20.110;2022-11-20T10:07:13;27.13;;;12.93;;
76463;SDS011;65301;46.666;20.110;2022-11-20T10:10:40;27.27;;;12.63;;
76463;SDS011;65301;46.666;20.110;2022-11-20T10:20:30;22.08;;;10.90;;
76463;SDS011;65301;46.666;20.110;2022-11-20T10:23:59;25.03;;;11.90;;
76463;SDS011;65301;46.666;20.110;2022-11-20T10:27:19;22.03;;;11.57;;
76463;SDS011;65301;46.666;20.110;2022-11-20T10:30:26;25.80;;;11.93;;
76463;SDS011;65301;46.666;20.110;2022-11-20T10:33:33;23.05;;;11.45;;
76463;SDS011;65301;46.666;20.110;2022-11-20T10:37:09;24.48;;;13.20;;
76463;SDS011;65301;46.666;20.110;2022-11-20T10:40:19;22.03;;;11.83;;
76463;SDS011;65301;46.666;20.110;2022-11-20T10:43:35;28.13;;;13.03;;
76463;SDS011;65301;46.666;20.110;2022-11-20T10:46:42;23.33;;;13.52;;
76463;SDS011;65301;46.666;20.110;2022-11-20T10:49:51;20.35;;;11.25;;
76463;SDS011;65301;46.666;20.110;2022-11-20T10:53:43;24.10;;;12.35;;
76463;SDS011;65301;46.666;20.110;2022-11-20T10:56:41;26.03;;;14.27;;
76463;SDS011;65301;46.666;20.110;2022-11-20T11:02:55;20.80;;;10.85;;
76463;SDS011;65301;46.666;20.110;2022-11-20T11:06:07;19.65;;;11.18;;
76463;SDS011;65301;46.666;20.110;2022-11-20T11:09:29;22.33;;;12.88;;
76463;SDS011;65301;46.666;20.110;2022-11-20T11:12:37;29.43;;;13.83;;
76463;SDS011;65301;46.666;20.110;2022-11-20T11:15:46;23.63;;;13.27;;
76463;SDS011;65301;46.666;20.110;2022-11-20T11:18:47;21.67;;;11.60;;
76463;SDS011;65301;46.666;20.110;2022-11-20T11:21:50;22.52;;;12.20;;
76463;SDS011;65301;46.666;20.110;2022-11-20T11:24:56;24.08;;;12.35;;
76463;SDS011;65301;46.666;20.110;2022-11-20T11:28:00;26.47;;;14.43;;
76463;SDS011;65301;46.666;20.110;2022-11-20T11:31:04;26.67;;;14.33;;
76463;SDS011;65301;46.666;20.110;2022-11-20T11:34:06;23.63;;;12.35;;
76463;SDS011;65301;46.666;20.110;2022-11-20T11:37:17;21.80;;;11.50;;
76463;SDS011;65301;46.666;20.110;2022-11-20T11:40:24;23.10;;;12.55;;
76463;SDS011;65301;46.666;20.110;2022-11-20T11:43:28;22.97;;;13.00;;
76463;SDS011;65301;46.666;20.110;2022-11-20T11:46:55;18.87;;;11.67;;
76463;SDS011;65301;46.666;20.110;2022-11-20T11:53:15;20.70;;;11.25;;
76463;SDS011;65301;46.666;20.110;2022-11-20T11:56:19;23.95;;;12.60;;
76463;SDS011;65301;46.666;20.110;2022-11-20T11:59:26;18.87;;;10.60;;
76463;SDS011;65301;46.666;20.110;2022-11-20T12:02:37;20.13;;;11.10;;
76463;SDS011;65301;46.666;20.110;2022-11-20T12:05:45;17.83;;;9.98;;
76463;SDS011;65301;46.666;20.110;2022-11-20T12:08:57;19.92;;;9.70;;
76463;SDS011;65301;46.666;20.110;2022-11-20T12:12:05;18.08;;;10.75;;
76463;SDS011;65301;46.666;20.110;2022-11-20T12:15:12;18.37;;;10.33;;
76463;SDS011;65301;46.666;20.110;2022-11-20T12:18:24;24.57;;;13.77;;
76463;SDS011;65301;46.666;20.110;2022-11-20T12:21:28;25.15;;;13.02;;
76463;SDS011;65301;46.666;20.110;2022-11-20T12:27:39;23.05;;;11.43;;
76463;SDS011;65301;46.666;20.110;2022-11-20T12:48:42;19.73;;;10.33;;
76463;SDS011;65301;46.666;20.110;2022-11-20T12:58:16;21.50;;;11.10;;
76463;SDS011;65301;46.666;20.110;2022-11-20T13:01:37;21.33;;;11.82;;
76463;SDS011;65301;46.666;20.110;2022-11-20T13:08:22;20.97;;;11.37;;
76463;SDS011;65301;46.666;20.110;2022-11-20T13:11:36;30.60;;;12.95;;
76463;SDS011;65301;46.666;20.110;2022-11-20T13:18:07;21.83;;;10.65;;
76463;SDS011;65301;46.666;20.110;2022-11-20T13:21:15;21.77;;;10.80;;
76463;SDS011;65301;46.666;20.110;2022-11-20T13:27:21;23.85;;;11.80;;
76463;SDS011;65301;46.666;20.110;2022-11-20T13:30:25;21.23;;;11.18;;
76463;SDS011;65301;46.666;20.110;2022-11-20T13:33:29;23.95;;;12.27;;
76463;SDS011;65301;46.666;20.110;2022-11-20T13:36:33;19.33;;;10.67;;
76463;SDS011;65301;46.666;20.110;2022-11-20T13:39:37;21.10;;;11.23;;
76463;SDS011;65301;46.666;20.110;2022-11-20T13:42:39;20.85;;;11.18;;
76463;SDS011;65301;46.666;20.110;2022-11-20T13:46:05;23.00;;;12.10;;
76463;SDS011;65301;46.666;20.110;2022-11-20T13:49:09;19.02;;;11.40;;
76463;SDS011;65301;46.666;20.110;2022-11-20T13:55:54;17.67;;;10.30;;
76463;SDS011;65301;46.666;20.110;2022-11-20T14:02:30;19.33;;;10.70;;
76463;SDS011;65301;46.666;20.110;2022-11-20T14:05:38;17.55;;;10.60;;
76463;SDS011;65301;46.666;20.110;2022-11-20T14:08:51;20.40;;;11.10;;
76463;SDS011;65301;46.666;20.110;2022-11-20T14:11:54;17.43;;;10.93;;
76463;SDS011;65301;46.666;20.110;2022-11-20T14:14:56;17.90;;;11.02;;
76463;SDS011;65301;46.666;20.110;2022-11-20T14:17:59;21.60;;;11.35;;
76463;SDS011;65301;46.666;20.110;2022-11-20T14:21:20;19.38;;;10.80;;
76463;SDS011;65301;46.666;20.110;2022-11-20T14:24:26;18.43;;;10.30;;
76463;SDS011;65301;46.666;20.110;2022-11-20T14:27:28;21.17;;;10.67;;
76463;SDS011;65301;46.666;20.110;2022-11-20T14:30:37;17.17;;;9.68;;
76463;SDS011;65301;46.666;20.110;2022-11-20T14:33:45;18.23;;;9.52;;
76463;SDS011;65301;46.666;20.110;2022-11-20T14:36:48;17.80;;;9.40;;
76463;SDS011;65301;46.666;20.110;2022-11-20T14:39:55;17.70;;;9.77;;
76463;SDS011;65301;46.666;20.110;2022-11-20T14:43:00;21.73;;;11.10;;
76463;SDS011;65301;46.666;20.110;2022-11-20T14:46:05;19.27;;;11.93;;
76463;SDS011;65301;46.666;20.110;2022-11-20T14:49:10;24.15;;;13.18;;
76463;SDS011;65301;46.666;20.110;2022-11-20T14:52:14;28.85;;;13.90;;
76463;SDS011;65301;46.666;20.110;2022-11-20T14:55:32;32.13;;;16.67;;
76463;SDS011;65301;46.666;20.110;2022-11-20T14:58:35;22.77;;;13.43;;
76463;SDS011;65301;46.666;20.110;2022-11-20T15:01:37;23.15;;;13.05;;
76463;SDS011;65301;46.666;20.110;2022-11-20T15:04:49;24.85;;;14.18;;
76463;SDS011;65301;46.666;20.110;2022-11-20T15:08:08;22.63;;;13.30;;
76463;SDS011;65301;46.666;20.110;2022-11-20T15:11:17;23.37;;;13.13;;
76463;SDS011;65301;46.666;20.110;2022-11-20T15:14:21;24.37;;;13.50;;
76463;SDS011;65301;46.666;20.110;2022-11-20T15:17:23;22.00;;;12.80;;
76463;SDS011;65301;46.666;20.110;2022-11-20T15:20:26;21.83;;;12.07;;
76463;SDS011;65301;46.666;20.110;2022-11-20T15:23:31;23.70;;;12.30;;
76463;SDS011;65301;46.666;20.110;2022-11-20T15:26:33;21.23;;;12.40;;
76463;SDS011;65301;46.666;20.110;2022-11-20T15:29:36;20.23;;;12.20;;
76463;SDS011;65301;46.666;20.110;2022-11-20T15:32:41;21.77;;;11.73;;
76463;SDS011;65301;46.666;20.110;2022-11-20T15:35:44;20.15;;;11.25;;
76463;SDS011;65301;46.666;20.110;2022-11-20T15:38:46;21.33;;;11.48;;
76463;SDS011;65301;46.666;20.110;2022-11-20T15:41:48;20.23;;;11.43;;
76463;SDS011;65301;46.666;20.110;2022-11-20T15:44:49;23.87;;;11.93;;
76463;SDS011;65301;46.666;20.110;2022-11-20T15:47:51;21.48;;;12.10;;
76463;SDS011;65301;46.666;20.110;2022-11-20T15:51:01;38.38;;;19.75;;
76463;SDS011;65301;46.666;20.110;2022-11-20T15:54:09;38.28;;;19.58;;
76463;SDS011;65301;46.666;20.110;2022-11-20T15:57:13;38.33;;;19.80;;
76463;SDS011;65301;46.666;20.110;2022-11-20T16:00:15;32.90;;;16.30;;
76463;SDS011;65301;46.666;20.110;2022-11-20T16:03:24;30.60;;;14.52;;
76463;SDS011;65301;46.666;20.110;2022-11-20T16:06:26;28.90;;;15.43;;
76463;SDS011;65301;46.666;20.110;2022-11-20T16:09:28;30.02;;;16.65;;
76463;SDS011;65301;46.666;20.110;2022-11-20T16:12:30;26.17;;;15.50;;
76463;SDS011;65301;46.666;20.110;2022-11-20T16:15:51;24.90;;;13.87;;
76463;SDS011;65301;46.666;20.110;2022-11-20T16:18:58;27.20;;;14.65;;
76463;SDS011;65301;46.666;20.110;2022-11-20T16:22:00;24.65;;;13.95;;
76463;SDS011;65301;46.666;20.110;2022-11-20T16:25:05;21.25;;;11.80;;
76463;SDS011;65301;46.666;20.110;2022-11-20T16:28:07;24.37;;;13.83;;
76463;SDS011;65301;46.666;20.110;2022-11-20T16:31:12;24.03;;;12.27;;
76463;SDS011;65301;46.666;20.110;2022-11-20T16:34:18;23.73;;;12.40;;
76463;SDS011;65301;46.666;20.110;2022-11-20T16:37:20;21.40;;;11.85;;
76463;SDS011;65301;46.666;20.110;2022-11-20T16:40:22;22.45;;;11.85;;
76463;SDS011;65301;46.666;20.110;2022-11-20T16:43:25;23.33;;;12.10;;
76463;SDS011;65301;46.666;20.110;2022-11-20T16:46:30;21.53;;;12.10;;
76463;SDS011;65301;46.666;20.110;2022-11-20T16:49:33;26.98;;;14.55;;
76463;SDS011;65301;46.666;20.110;2022-11-20T16:52:34;25.25;;;13.52;;
76463;SDS011;65301;46.666;20.110;2022-11-20T16:55:37;23.25;;;13.43;;
76463;SDS011;65301;46.666;20.110;2022-11-20T16:58:38;25.67;;;13.87;;
76463;SDS011;65301;46.666;20.110;2022-11-20T17:01:40;25.73;;;14.17;;
76463;SDS011;65301;46.666;20.110;2022-11-20T17:04:44;29.30;;;13.88;;
76463;SDS011;65301;46.666;20.110;2022-11-20T17:07:46;25.63;;;13.13;;
76463;SDS011;65301;46.666;20.110;2022-11-20T17:10:48;25.33;;;12.95;;
76463;SDS011;65301;46.666;20.110;2022-11-20T17:13:49;27.97;;;15.13;;
76463;SDS011;65301;46.666;20.110;2022-11-20T17:16:51;26.63;;;14.00;;
76463;SDS011;65301;46.666;20.110;2022-11-20T17:19:53;27.85;;;13.43;;
76463;SDS011;65301;46.666;20.110;2022-11-20T17:22:55;26.25;;;13.63;;
76463;SDS011;65301;46.666;20.110;2022-11-20T17:26:04;27.80;;;13.60;;
76463;SDS011;65301;46.666;20.110;2022-11-20T17:29:13;24.20;;;13.13;;
76463;SDS011;65301;46.666;20.110;2022-11-20T17:32:17;28.33;;;15.67;;
76463;SDS011;65301;46.666;20.110;2022-11-20T17:35:19;31.02;;;16.40;;
76463;SDS011;65301;46.666;20.110;2022-11-20T17:38:22;30.25;;;15.45;;
76463;SDS011;65301;46.666;20.110;2022-11-20T17:41:25;27.15;;;13.82;;
76463;SDS011;65301;46.666;20.110;2022-11-20T17:44:29;27.33;;;13.50;;
76463;SDS011;65301;46.666;20.110;2022-11-20T17:47:30;28.57;;;14.53;;
76463;SDS011;65301;46.666;20.110;2022-11-20T17:50:32;28.05;;;14.90;;
76463;SDS011;65301;46.666;20.110;2022-11-20T17:53:35;26.83;;;14.85;;
76463;SDS011;65301;46.666;20.110;2022-11-20T17:56:39;27.85;;;13.98;;
76463;SDS011;65301;46.666;20.110;2022-11-20T18:00:00;31.43;;;15.00;;
76463;SDS011;65301;46.666;20.110;2022-11-20T18:03:03;30.60;;;14.97;;
76463;SDS011;65301;46.666;20.110;2022-11-20T18:09:14;31.75;;;15.30;;
76463;SDS011;65301;46.666;20.110;2022-11-20T18:12:17;29.88;;;14.48;;
76463;SDS011;65301;46.666;20.110;2022-11-20T18:15:19;29.73;;;15.67;;
76463;SDS011;65301;46.666;20.110;2022-11-20T18:18:20;29.50;;;15.03;;
76463;SDS011;65301;46.666;20.110;2022-11-20T18:21:23;32.85;;;15.88;;
76463;SDS011;65301;46.666;20.110;2022-11-20T18:24:27;32.17;;;15.27;;
76463;SDS011;65301;46.666;20.110;2022-11-20T18:27:29;31.50;;;15.57;;
76463;SDS011;65301;46.666;20.110;2022-11-20T18:30:31;28.47;;;15.60;;
76463;SDS011;65301;46.666;20.110;2022-11-20T18:33:33;33.40;;;15.50;;
76463;SDS011;65301;46.666;20.110;2022-11-20T18:36:35;30.35;;;15.15;;
76463;SDS011;65301;46.666;20.110;2022-11-20T18:39:38;32.33;;;15.68;;
76463;SDS011;65301;46.666;20.110;2022-11-20T18:42:40;30.25;;;16.35;;
76463;SDS011;65301;46.666;20.110;2022-11-20T18:46:01;29.13;;;14.93;;
76463;SDS011;65301;46.666;20.110;2022-11-20T18:49:04;28.07;;;14.20;;
76463;SDS011;65301;46.666;20.110;2022-11-20T18:52:06;32.13;;;15.55;;
76463;SDS011;65301;46.666;20.110;2022-11-20T18:55:08;29.83;;;14.80;;